首页
METAR-TAF:

METAR-TAF

机场 :

神戶機場

神户, 日本

纬度: 34-37-58N, 经度: 135-13-26E, 海拔: 7米

当前天气观测

该预报发布于5小时和53分钟前的12:00 UTC
风速10节,风向东转东北
温度 14°C
湿度 67%
气压 1019 hPa
能见度10公里或以上
少量云层高于4000英尺

METAR: RJBE 171200Z 06010KT 9999 FEW040 14/08 Q1019

时间: 02:53 (17:53 UTC)


TAF: 丢失

超过4000个机场的气象观测和天气预报(METAR&TAF报告)。

可查询的气象台以黄色和红色小点在地图上表示。

将鼠标移到小点上方,可查看气象台名称。

然后点击查看天气观测和预报。

如需切换地图:点击带黑十字的绿色按钮放大地图;点击带横线的绿色按钮缩小地图;或者点击绿色箭头查看邻近地区的地图。


METAR-TAF: